createdAt,value
2022-10-11T00:01:21.502Z,100.00
2022-10-11T00:03:51.330Z,100.00
2022-10-11T00:06:20.998Z,100.00
2022-10-11T00:08:51.367Z,100.00
2022-10-11T00:11:20.360Z,100.00
2022-10-11T00:13:50.794Z,100.00
2022-10-11T00:16:19.372Z,100.00
2022-10-11T00:18:47.720Z,100.00
2022-10-11T00:21:18.690Z,100.00
2022-10-11T00:23:46.818Z,100.00
2022-10-11T00:26:16.454Z,100.00
2022-10-11T00:28:44.752Z,100.00
2022-10-11T00:31:20.825Z,100.00
2022-10-11T00:33:51.392Z,100.00
2022-10-11T00:36:20.886Z,100.00
2022-10-11T00:38:51.343Z,100.00
2022-10-11T00:41:19.808Z,100.00
2022-10-11T00:43:50.940Z,100.00
2022-10-11T00:46:28.165Z,100.00
2022-10-11T00:49:39.175Z,100.00
2022-10-11T00:52:16.306Z,100.00
2022-10-11T00:54:48.358Z,100.00
2022-10-11T00:57:25.253Z,100.00
2022-10-11T00:59:56.040Z,100.00
2022-10-11T01:02:25.443Z,100.00
2022-10-11T01:05:18.042Z,100.00
2022-10-11T01:07:43.658Z,100.00
2022-10-11T01:10:12.675Z,100.00
2022-10-11T01:13:04.753Z,100.00
2022-10-11T01:15:49.481Z,100.00
2022-10-11T01:18:31.158Z,100.00
2022-10-11T01:21:29.019Z,100.00
2022-10-11T01:24:43.459Z,100.00
2022-10-11T01:27:38.562Z,100.00
2022-10-11T01:30:31.725Z,100.00
2022-10-11T01:33:06.720Z,100.00
2022-10-11T01:35:49.492Z,100.00
2022-10-11T01:38:28.235Z,100.00
2022-10-11T01:41:02.925Z,100.00
2022-10-11T01:43:31.437Z,100.00
2022-10-11T01:46:02.405Z,100.00
2022-10-11T01:48:30.660Z,100.00
2022-10-11T01:51:05.033Z,100.00
2022-10-11T01:53:57.572Z,100.00
2022-10-11T01:56:52.527Z,100.00
2022-10-11T01:59:46.818Z,100.00
2022-10-11T02:02:51.938Z,100.00
2022-10-11T02:05:57.057Z,100.00
2022-10-11T02:08:24.751Z,100.00
2022-10-11T02:11:25.163Z,100.00
2022-10-11T02:14:08.467Z,100.00
2022-10-11T02:16:59.101Z,100.00
2022-10-11T02:19:34.805Z,100.00
2022-10-11T02:22:10.629Z,100.00
2022-10-11T02:24:43.190Z,100.00
2022-10-11T02:27:13.873Z,100.00
2022-10-11T02:29:44.246Z,100.00
2022-10-11T02:32:15.113Z,100.00
2022-10-11T02:34:53.209Z,100.00
2022-10-11T02:37:42.454Z,100.00
2022-10-11T02:40:31.450Z,100.00
2022-10-11T02:43:07.905Z,100.00
2022-10-11T02:45:41.265Z,100.00
2022-10-11T02:48:12.632Z,100.00
2022-10-11T02:50:43.602Z,100.00
2022-10-11T02:53:12.562Z,100.00
2022-10-11T02:55:40.650Z,100.00
2022-10-11T02:58:12.329Z,100.00
2022-10-11T03:00:40.746Z,100.00
2022-10-11T03:03:09.761Z,100.00
2022-10-11T03:05:41.449Z,100.00
2022-10-11T03:08:10.841Z,100.00
2022-10-11T03:10:39.621Z,100.00
2022-10-11T03:13:15.993Z,100.00
2022-10-11T03:16:02.240Z,100.00
2022-10-11T03:18:32.033Z,100.00
2022-10-11T03:21:01.048Z,100.00
2022-10-11T03:23:28.814Z,100.00
2022-10-11T03:25:57.437Z,100.00
2022-10-11T03:28:25.779Z,100.00
2022-10-11T03:30:54.861Z,100.00
2022-10-11T03:33:22.793Z,100.00
2022-10-11T03:35:51.895Z,100.00
2022-10-11T03:38:22.315Z,100.00
2022-10-11T03:40:51.178Z,100.00
2022-10-11T03:43:19.863Z,100.00
2022-10-11T03:45:48.551Z,100.00
2022-10-11T03:48:18.706Z,100.00
2022-10-11T03:50:51.128Z,100.00
2022-10-11T03:53:18.833Z,100.00
2022-10-11T03:55:53.801Z,100.00
2022-10-11T03:58:24.138Z,100.00
2022-10-11T04:00:54.178Z,100.00
2022-10-11T04:03:21.802Z,100.00
2022-10-11T04:05:50.585Z,100.00
2022-10-11T04:08:18.884Z,100.00
2022-10-11T04:10:51.521Z,100.00
2022-10-11T04:13:19.830Z,100.00
2022-10-11T04:15:48.738Z,100.00
2022-10-11T04:18:18.818Z,100.00
2022-10-11T04:20:47.725Z,100.00
2022-10-11T04:23:16.653Z,100.00
2022-10-11T04:25:46.142Z,100.00
2022-10-11T04:28:15.426Z,100.00
2022-10-11T04:30:42.978Z,100.00
2022-10-11T04:33:13.579Z,100.00
2022-10-11T04:35:43.159Z,100.00
2022-10-11T04:38:12.087Z,100.00
2022-10-11T04:40:41.971Z,100.00
2022-10-11T04:43:09.885Z,100.00
2022-10-11T04:45:38.906Z,100.00
2022-10-11T04:48:08.130Z,100.00
2022-10-11T04:50:37.358Z,100.00
2022-10-11T04:53:05.896Z,100.00
2022-10-11T04:55:35.135Z,100.00
2022-10-11T04:58:03.743Z,100.00
2022-10-11T05:00:32.961Z,100.00
2022-10-11T05:03:00.856Z,100.00
2022-10-11T05:05:29.950Z,100.00
2022-10-11T05:07:59.929Z,100.00
2022-10-11T05:10:27.621Z,100.00
2022-10-11T05:12:55.695Z,100.00
2022-10-11T05:15:24.456Z,100.00
2022-10-11T05:17:52.722Z,100.00
2022-10-11T05:20:21.903Z,100.00
2022-10-11T05:22:49.645Z,100.00
2022-10-11T05:25:17.835Z,100.00
2022-10-11T05:27:46.630Z,100.00
2022-10-11T05:30:14.912Z,100.00
2022-10-11T05:32:44.153Z,100.00
2022-10-11T05:35:12.735Z,100.00
2022-10-11T05:37:43.791Z,100.00
2022-10-11T05:40:13.190Z,100.00
2022-10-11T05:42:42.157Z,100.00
2022-10-11T05:45:10.045Z,100.00
2022-10-11T05:47:38.933Z,100.00
2022-10-11T05:50:07.244Z,100.00
2022-10-11T05:52:36.181Z,100.00
2022-10-11T05:55:05.167Z,100.00
2022-10-11T05:57:35.637Z,100.00
2022-10-11T06:00:05.516Z,99.55
2022-10-11T06:02:34.762Z,100.00
2022-10-11T06:05:04.004Z,99.42
2022-10-11T06:07:36.061Z,98.74
2022-10-11T06:10:05.081Z,100.00
2022-10-11T06:12:34.709Z,98.42
2022-10-11T06:15:04.215Z,97.90
2022-10-11T06:17:33.210Z,98.17
2022-10-11T06:20:02.304Z,97.20
2022-10-11T06:22:30.803Z,98.67
2022-10-11T06:25:00.013Z,99.39
2022-10-11T06:27:29.927Z,99.86
2022-10-11T06:29:57.815Z,99.38
2022-10-11T06:32:26.253Z,98.66
2022-10-11T06:34:54.836Z,96.57
2022-10-11T06:37:23.577Z,97.68
2022-10-11T06:39:51.708Z,97.36
2022-10-11T06:42:20.992Z,97.21
2022-10-11T06:44:48.739Z,95.11
2022-10-11T06:47:17.482Z,95.92
2022-10-11T06:49:45.700Z,94.35
2022-10-11T06:52:14.456Z,95.03
2022-10-11T06:54:45.042Z,94.27
2022-10-11T06:57:14.122Z,93.21
2022-10-11T06:59:42.209Z,94.54
2022-10-11T07:02:10.941Z,95.26
2022-10-11T07:04:39.496Z,93.17
2022-10-11T07:07:08.766Z,92.42
2022-10-11T07:09:37.977Z,90.84
2022-10-11T07:12:07.282Z,90.64
2022-10-11T07:14:36.732Z,90.10
2022-10-11T07:17:06.713Z,90.13
2022-10-11T07:19:35.618Z,88.70
2022-10-11T07:22:03.769Z,87.09
2022-10-11T07:24:32.467Z,87.30
2022-10-11T07:27:03.370Z,87.63
2022-10-11T07:29:34.355Z,89.21
2022-10-11T07:32:02.776Z,89.07
2022-10-11T07:34:31.774Z,88.87
2022-10-11T07:37:03.088Z,88.95
2022-10-11T07:39:31.754Z,87.94
2022-10-11T07:42:00.546Z,87.27
2022-10-11T07:44:28.929Z,86.37
2022-10-11T07:47:16.234Z,86.81
2022-10-11T07:49:45.761Z,84.58
2022-10-11T07:52:13.736Z,87.67
2022-10-11T07:54:41.811Z,86.13
2022-10-11T07:57:13.053Z,85.77
2022-10-11T07:59:47.838Z,86.03
2022-10-11T08:02:20.047Z,85.42
2022-10-11T08:04:47.737Z,86.61
2022-10-11T08:07:15.677Z,85.29
2022-10-11T08:09:44.741Z,82.43
2022-10-11T08:12:13.214Z,83.45
2022-10-11T08:14:42.333Z,83.14
2022-10-11T08:17:10.669Z,84.36
2022-10-11T08:19:38.717Z,81.74
2022-10-11T08:22:07.566Z,80.99
2022-10-11T08:24:38.447Z,81.92
2022-10-11T08:27:07.400Z,80.15
2022-10-11T08:29:38.745Z,78.96
2022-10-11T08:32:12.035Z,80.37
2022-10-11T08:34:39.639Z,80.33
2022-10-11T08:37:09.921Z,80.82
2022-10-11T08:39:37.654Z,80.24
2022-10-11T08:42:39.395Z,81.16
2022-10-11T08:45:12.138Z,80.76
2022-10-11T08:47:45.196Z,79.38
2022-10-11T08:50:23.506Z,79.02
2022-10-11T08:53:05.018Z,76.98
2022-10-11T08:55:46.277Z,78.45
2022-10-11T08:58:22.986Z,78.82
2022-10-11T09:00:58.086Z,80.78
2022-10-11T09:03:38.465Z,78.26
2022-10-11T09:06:36.441Z,77.19
2022-10-11T09:09:22.991Z,76.77
2022-10-11T09:12:18.843Z,77.08
2022-10-11T09:15:28.069Z,75.56
2022-10-11T09:18:14.519Z,77.30
2022-10-11T09:21:22.004Z,75.89
2022-10-11T09:24:20.421Z,76.23
2022-10-11T09:27:01.615Z,75.64
2022-10-11T09:30:03.270Z,74.82
2022-10-11T09:32:38.544Z,76.27
2022-10-11T09:35:25.447Z,74.80
2022-10-11T09:38:05.805Z,75.43
2022-10-11T09:40:57.291Z,73.98
2022-10-11T09:43:28.803Z,72.12
2022-10-11T09:45:58.003Z,73.50
2022-10-11T09:48:33.303Z,72.95
2022-10-11T09:51:20.311Z,73.31
2022-10-11T09:54:03.725Z,74.31
2022-10-11T09:56:34.852Z,71.22
2022-10-11T09:59:31.345Z,73.13
2022-10-11T10:02:21.650Z,73.30
2022-10-11T10:05:17.195Z,71.86
2022-10-11T10:08:04.784Z,70.45
2022-10-11T10:10:42.758Z,72.11
2022-10-11T10:13:22.796Z,70.20
2022-10-11T10:15:59.141Z,71.71
2022-10-11T10:19:07.336Z,72.27
2022-10-11T10:21:47.459Z,71.23
2022-10-11T10:24:39.585Z,72.87
2022-10-11T10:27:23.787Z,71.66
2022-10-11T10:30:13.791Z,73.25
2022-10-11T10:33:01.314Z,71.05
2022-10-11T10:35:45.639Z,71.23
2022-10-11T10:38:52.016Z,74.08
2022-10-11T10:41:20.723Z,71.90
2022-10-11T10:44:00.783Z,73.07
2022-10-11T10:47:04.238Z,71.35
2022-10-11T10:49:56.160Z,73.80
2022-10-11T10:52:30.741Z,74.54
2022-10-11T10:55:24.041Z,74.42
2022-10-11T10:58:18.957Z,73.86
2022-10-11T11:00:56.946Z,74.45
2022-10-11T11:03:43.757Z,72.46
2022-10-11T11:06:25.573Z,72.84
2022-10-11T11:09:17.560Z,71.80
2022-10-11T11:12:18.110Z,72.05
2022-10-11T11:15:15.002Z,70.88
2022-10-11T11:18:01.173Z,69.81
2022-10-11T11:20:52.134Z,70.76
2022-10-11T11:23:52.237Z,70.21
2022-10-11T11:26:58.332Z,73.09
2022-10-11T11:29:50.804Z,73.30
2022-10-11T11:32:56.529Z,72.85
2022-10-11T11:35:49.057Z,72.88
2022-10-11T11:38:29.210Z,74.58
2022-10-11T11:41:09.341Z,73.63
2022-10-11T11:43:53.555Z,71.47
2022-10-11T11:46:28.931Z,71.52
2022-10-11T11:49:00.856Z,71.35
2022-10-11T11:51:50.584Z,72.71
2022-10-11T11:54:22.234Z,72.37
2022-10-11T11:57:22.981Z,73.17
2022-10-11T12:00:03.301Z,74.74
2022-10-11T12:03:09.505Z,70.96
2022-10-11T12:05:37.870Z,69.84
2022-10-11T12:08:08.909Z,70.23
2022-10-11T12:11:01.519Z,67.01
2022-10-11T12:13:40.113Z,67.04
2022-10-11T12:16:13.882Z,65.18
2022-10-11T12:19:01.954Z,64.87
2022-10-11T12:21:39.288Z,63.71
2022-10-11T12:24:25.638Z,64.75
2022-10-11T12:26:59.277Z,64.82
2022-10-11T12:29:48.101Z,64.91
2022-10-11T12:32:34.407Z,61.98
2022-10-11T12:35:33.966Z,60.70
2022-10-11T12:38:24.126Z,58.95
2022-10-11T12:41:17.177Z,58.98
2022-10-11T12:43:52.232Z,58.00
2022-10-11T12:46:39.570Z,59.03
2022-10-11T12:49:33.183Z,56.90
2022-10-11T12:52:28.580Z,55.59
2022-10-11T12:55:51.470Z,53.85
2022-10-11T12:58:38.970Z,50.95
2022-10-11T13:01:23.706Z,51.66
2022-10-11T13:03:57.981Z,49.39
2022-10-11T13:06:35.871Z,49.43
2022-10-11T13:09:31.804Z,48.61
2022-10-11T13:12:06.547Z,46.48
2022-10-11T13:14:42.729Z,46.84
2022-10-11T13:17:39.277Z,47.58
2022-10-11T13:20:24.321Z,47.50
2022-10-11T13:22:55.856Z,49.32
2022-10-11T13:25:28.178Z,51.34
2022-10-11T13:27:59.685Z,50.82
2022-10-11T13:30:31.790Z,49.21
2022-10-11T13:33:01.784Z,48.20
2022-10-11T13:35:33.241Z,49.58
2022-10-11T13:38:06.531Z,49.19
2022-10-11T13:40:36.906Z,49.27
2022-10-11T13:43:06.351Z,48.22
2022-10-11T13:45:37.229Z,48.01
2022-10-11T13:48:14.852Z,47.16
2022-10-11T13:50:51.365Z,48.54
2022-10-11T13:53:25.353Z,51.05
2022-10-11T13:56:06.799Z,51.87
2022-10-11T13:58:48.696Z,51.43
2022-10-11T14:01:19.487Z,52.37
2022-10-11T14:03:55.419Z,51.45
2022-10-11T14:06:25.775Z,53.70
2022-10-11T14:08:59.454Z,57.83
2022-10-11T14:11:34.521Z,58.82
2022-10-11T14:14:32.725Z,62.43
2022-10-11T14:17:12.405Z,61.92
2022-10-11T14:19:43.117Z,64.39
2022-10-11T14:22:15.695Z,65.43
2022-10-11T14:24:48.336Z,66.17
2022-10-11T14:27:23.190Z,69.57
2022-10-11T14:30:20.348Z,69.80
2022-10-11T14:32:43.080Z,70.81
2022-10-11T14:35:27.151Z,72.68
2022-10-11T14:37:56.508Z,72.71
2022-10-11T14:40:28.657Z,73.90
2022-10-11T14:42:58.277Z,75.97
2022-10-11T14:45:27.004Z,75.95
2022-10-11T14:47:56.518Z,76.21
2022-10-11T14:50:51.697Z,77.88
2022-10-11T14:53:21.243Z,79.97
2022-10-11T14:55:50.261Z,79.47
2022-10-11T14:58:19.359Z,79.33
2022-10-11T15:00:48.309Z,79.40
2022-10-11T15:03:17.494Z,80.96
2022-10-11T15:05:46.756Z,80.71
2022-10-11T15:08:15.636Z,81.60
2022-10-11T15:10:45.890Z,81.47
2022-10-11T15:13:13.786Z,81.19
2022-10-11T15:15:48.236Z,82.10
2022-10-11T15:18:21.383Z,81.85
2022-10-11T15:20:49.780Z,83.51
2022-10-11T15:23:18.791Z,83.97
2022-10-11T15:25:46.913Z,83.39
2022-10-11T15:28:30.318Z,84.87
2022-10-11T15:30:59.484Z,86.24
2022-10-11T15:33:28.433Z,86.91
2022-10-11T15:35:56.779Z,89.10
2022-10-11T15:38:26.175Z,88.74
2022-10-11T15:40:55.551Z,87.95
2022-10-11T15:43:27.470Z,87.36
2022-10-11T15:45:57.821Z,89.09
2022-10-11T15:48:27.206Z,89.94
2022-10-11T15:50:56.270Z,89.67
2022-10-11T15:53:31.619Z,91.53
2022-10-11T15:56:06.801Z,92.67
2022-10-11T15:58:40.546Z,93.60
2022-10-11T16:01:18.197Z,91.00
2022-10-11T16:03:48.346Z,91.30
2022-10-11T16:06:19.076Z,90.00
2022-10-11T16:08:47.918Z,90.00
2022-10-11T16:11:16.928Z,94.61
2022-10-11T16:13:47.748Z,93.13
2022-10-11T16:16:15.758Z,96.79
2022-10-11T16:18:47.515Z,96.94
2022-10-11T16:21:16.287Z,95.66
2022-10-11T16:23:47.413Z,97.24
2022-10-11T16:26:16.781Z,98.82
2022-10-11T16:28:47.772Z,97.18
2022-10-11T16:31:20.745Z,95.56
2022-10-11T16:33:50.294Z,95.34
2022-10-11T16:36:36.828Z,95.78
2022-10-11T16:39:08.531Z,97.53
2022-10-11T16:41:37.761Z,95.77
2022-10-11T16:44:06.490Z,97.88
2022-10-11T16:46:36.171Z,95.84
2022-10-11T16:49:04.577Z,94.85
2022-10-11T16:51:33.991Z,97.16
2022-10-11T16:54:02.770Z,97.07
2022-10-11T16:56:33.930Z,95.62
2022-10-11T16:59:06.146Z,95.35
2022-10-11T17:01:34.107Z,96.86
2022-10-11T17:04:03.647Z,97.00
2022-10-11T17:06:32.816Z,96.19
2022-10-11T17:09:04.412Z,96.78
2022-10-11T17:11:36.676Z,96.81
2022-10-11T17:14:06.445Z,97.43
2022-10-11T17:16:35.531Z,98.74
2022-10-11T17:19:04.373Z,98.75
2022-10-11T17:21:33.682Z,97.94
2022-10-11T17:24:01.690Z,97.75
2022-10-11T17:26:29.746Z,96.63
2022-10-11T17:29:00.546Z,94.64
2022-10-11T17:31:29.869Z,94.64
2022-10-11T17:34:01.697Z,93.81
2022-10-11T17:36:34.774Z,94.48
2022-10-11T17:39:07.501Z,95.45
2022-10-11T17:41:36.017Z,94.29
2022-10-11T17:44:05.303Z,93.81
2022-10-11T17:46:34.838Z,92.61
2022-10-11T17:49:05.584Z,92.71
2022-10-11T17:51:35.909Z,92.48
2022-10-11T17:54:04.866Z,89.55
2022-10-11T17:56:37.750Z,89.63
2022-10-11T17:59:07.904Z,88.94
2022-10-11T18:01:36.317Z,88.91
2022-10-11T18:04:10.845Z,88.17
2022-10-11T18:06:39.744Z,87.55
2022-10-11T18:09:08.855Z,87.48
2022-10-11T18:11:39.797Z,86.13
2022-10-11T18:14:09.008Z,85.63
2022-10-11T18:16:38.240Z,85.49
2022-10-11T18:19:12.632Z,83.91
2022-10-11T18:21:41.359Z,83.55
2022-10-11T18:24:15.460Z,84.47
2022-10-11T18:26:45.577Z,83.56
2022-10-11T18:29:14.373Z,83.41
2022-10-11T18:31:43.624Z,82.74
2022-10-11T18:34:13.203Z,83.07
2022-10-11T18:36:43.787Z,83.85
2022-10-11T18:39:14.461Z,83.40
2022-10-11T18:41:44.729Z,80.43
2022-10-11T18:44:15.250Z,81.13
2022-10-11T18:46:44.975Z,81.91
2022-10-11T18:49:14.468Z,80.75
2022-10-11T18:51:43.149Z,82.00
2022-10-11T18:54:16.669Z,81.81
2022-10-11T18:56:49.401Z,80.60
2022-10-11T18:59:20.462Z,79.99
2022-10-11T19:01:52.315Z,80.40
2022-10-11T19:04:21.823Z,79.59
2022-10-11T19:06:52.840Z,79.49
2022-10-11T19:09:26.502Z,79.45
2022-10-11T19:12:00.433Z,80.16
2022-10-11T19:14:30.439Z,81.34
2022-10-11T19:17:01.327Z,81.95
2022-10-11T19:19:31.111Z,81.57
2022-10-11T19:22:03.652Z,79.94
2022-10-11T19:24:33.348Z,81.01
2022-10-11T19:27:03.329Z,80.12
2022-10-11T19:29:32.631Z,79.69
2022-10-11T19:32:03.781Z,80.78
2022-10-11T19:34:32.867Z,80.47
2022-10-11T19:37:03.276Z,83.55
2022-10-11T19:39:32.251Z,83.13
2022-10-11T19:42:01.471Z,82.77
2022-10-11T19:44:34.447Z,85.14
2022-10-11T19:47:05.926Z,84.85
2022-10-11T19:49:34.016Z,86.24
2022-10-11T19:52:02.945Z,85.52
2022-10-11T19:54:32.101Z,87.24
2022-10-11T19:57:00.985Z,88.69
2022-10-11T19:59:32.252Z,90.96
2022-10-11T20:02:00.965Z,90.22
2022-10-11T20:07:18.750Z,91.21
2022-10-11T20:09:51.872Z,91.38
2022-10-11T20:12:19.799Z,91.61
2022-10-11T20:14:48.913Z,91.75
2022-10-11T20:17:22.367Z,92.64
2022-10-11T20:19:52.969Z,92.38
2022-10-11T20:22:20.719Z,92.50
2022-10-11T20:24:48.680Z,92.78
2022-10-11T20:27:18.538Z,92.18
2022-10-11T20:29:49.013Z,88.66
2022-10-11T20:32:18.099Z,90.20
2022-10-11T20:34:45.698Z,90.11
2022-10-11T20:37:14.418Z,87.04
2022-10-11T20:39:43.691Z,87.87
2022-10-11T20:42:14.709Z,88.12
2022-10-11T20:44:44.729Z,87.46
2022-10-11T20:47:12.700Z,86.92
2022-10-11T20:49:43.988Z,85.67
2022-10-11T20:52:12.755Z,84.83
2022-10-11T20:54:41.865Z,84.00
2022-10-11T20:57:09.813Z,82.87
2022-10-11T20:59:39.241Z,83.15
2022-10-11T21:02:07.741Z,83.95
2022-10-11T21:04:36.629Z,84.07
2022-10-11T21:07:04.741Z,84.00
2022-10-11T21:09:33.737Z,84.61
2022-10-11T21:12:04.186Z,83.58
2022-10-11T21:14:33.852Z,82.48
2022-10-11T21:17:03.271Z,82.19
2022-10-11T21:19:31.615Z,83.29
2022-10-11T21:22:02.835Z,83.79
2022-10-11T21:24:31.381Z,81.47
2022-10-11T21:27:00.743Z,80.45
2022-10-11T21:29:29.972Z,79.08
2022-10-11T21:31:57.703Z,78.25
2022-10-11T21:34:26.424Z,78.77
2022-10-11T21:36:54.707Z,78.10
2022-10-11T21:39:25.674Z,77.38
2022-10-11T21:41:55.089Z,76.25
2022-10-11T21:44:23.296Z,76.03
2022-10-11T21:47:06.554Z,76.35
2022-10-11T21:49:37.180Z,76.29
2022-10-11T21:52:05.295Z,77.02
2022-10-11T21:54:34.360Z,77.13
2022-10-11T21:57:02.995Z,76.88
2022-10-11T21:59:32.383Z,76.56
2022-10-11T22:02:02.039Z,75.84
2022-10-11T22:04:31.233Z,75.42
2022-10-11T22:07:03.334Z,74.30
2022-10-11T22:09:35.175Z,74.72
2022-10-11T22:12:04.543Z,76.57
2022-10-11T22:14:33.686Z,76.90
2022-10-11T22:17:02.292Z,79.19
2022-10-11T22:19:33.409Z,79.14
2022-10-11T22:22:02.254Z,81.89
2022-10-11T22:24:33.596Z,82.24
2022-10-11T22:27:03.859Z,82.72
2022-10-11T22:29:34.307Z,82.49
2022-10-11T22:32:02.817Z,81.49
2022-10-11T22:34:33.201Z,79.46
2022-10-11T22:37:00.663Z,82.53
2022-10-11T22:39:29.979Z,83.73
2022-10-11T22:41:59.683Z,85.99
2022-10-11T22:44:29.275Z,88.23
2022-10-11T22:46:57.763Z,89.65
2022-10-11T22:49:26.893Z,86.42
2022-10-11T22:51:55.757Z,80.45
2022-10-11T22:54:24.541Z,84.68
2022-10-11T22:56:52.657Z,84.48
2022-10-11T22:59:23.796Z,85.55
2022-10-11T23:01:51.663Z,85.45
2022-10-11T23:04:23.242Z,83.71
2022-10-11T23:06:50.637Z,84.53
2022-10-11T23:09:19.923Z,86.37
2022-10-11T23:11:48.568Z,88.46
2022-10-11T23:14:16.793Z,90.37
2022-10-11T23:16:45.895Z,91.02
2022-10-11T23:19:13.688Z,92.37
2022-10-11T23:21:42.482Z,96.05
2022-10-11T23:24:14.802Z,93.91
2022-10-11T23:26:43.692Z,90.17
2022-10-11T23:29:12.596Z,90.81
2022-10-11T23:31:43.378Z,91.98
2022-10-11T23:34:12.229Z,93.43
2022-10-11T23:36:40.683Z,95.53
2022-10-11T23:39:13.896Z,93.34
2022-10-11T23:41:43.861Z,94.56
2022-10-11T23:44:13.335Z,93.92
2022-10-11T23:46:43.729Z,94.68
2022-10-11T23:49:12.818Z,96.25
2022-10-11T23:51:43.063Z,97.13
2022-10-11T23:54:13.314Z,96.56
2022-10-11T23:56:42.662Z,97.17
2022-10-11T23:59:13.702Z,97.06
